Search for airport 
image banner adimage banner adimage banner ad
image banner ad

CA72 - Community Memorial Hospital

Located in Ventura, United States

ICAO - CA72, IATA -

Data provided by Airmate  

General information

Coordinates: N34°16'29" W119°15'33"
Elevation is 175 feet MSL.
Magnetic variation is 14° East
View others Airports in California

Operational data

Special qualification required
Current time UTC:
Current local time:
Weather at : KOXR - Oxnard ( 9 km )
METAR: KOXR 141151Z 08003KT 10SM CLR 14/12 A2990 RMK AO2 SLP124 T01440122 10167 20144 53002
TAF: KOXR 141128Z 1412/1512 VRB03KT P6SM SKC FM141700 27007KT P6SM SKC FM142000 27014KT P6SM SKC FM150300 27007KT P6SM SKC FM150800 VRB03KT P6SM SKC
View NOTAMs / SUP AIP / TFR affecting this airport [VIEW]
Communications frequencies: [VIEW]

Runways:

Airport contact information

Address: Ventura United States

Satellite view of CA72